HRM weather

Hassi R'Mel Airport
Laghouat Province, Algeria

Public forecast

Using degrees Celsius for public forecast. Weather courtesy of forecast.io.

Current aviation weather report (METAR) for Hassi R'Mel Airport

Retrieved 2019/10/16 16:00 UTC (14 minutes ago):

DAFH 161600Z 19002KT 9999 FEW033 25/14 Q1020

Aviation forecast (TAF) for Hassi R'Mel Airport

Forecast is more than 12 hours old.

Retrieved 2019/04/23 06:48 UTC (6 months ago):

TAF DAFH 230500Z 2306/2318 CNL